Terminal Aerodrome Forecast
Issued by NWS

Home | Current Version | Previous Version | Text Only | Print | Product List | Glossary Off
Versions: 1 2 3 4 5 6 7 8 9 10 11 12 13 14 15
000 FTUS41 KBOX 240107 AAA TAFHYA TAF AMD KHYA 240107Z 2401/2424 35012G22KT P6SM VCTS BKN070CB FM240200 32009KT P6SM SCT070 FM240400 31004KT P6SM SCT080 FM241700 01007KT P6SM FEW250 FM242000 16007KT P6SM FEW250=

USA.gov is the U.S. government's official web portal to all federal, state and local government web resources and services.